createdAt,value
2019-06-20T00:00:33.655Z,89.43
2019-06-20T00:02:59.875Z,89.48
2019-06-20T00:05:26.229Z,89.03
2019-06-20T00:07:52.477Z,89.88
2019-06-20T00:10:18.736Z,91.47
2019-06-20T00:12:59.443Z,90.96
2019-06-20T00:15:13.420Z,91.65
2019-06-20T00:17:39.652Z,91.29
2019-06-20T00:20:05.904Z,92.24
2019-06-20T00:22:32.034Z,91.32
2019-06-20T00:24:58.163Z,91.31
2019-06-20T00:27:24.285Z,91.41
2019-06-20T00:29:50.515Z,90.81
2019-06-20T00:32:16.750Z,90.52
2019-06-20T00:34:42.880Z,88.46
2019-06-20T00:37:09.036Z,88.65
2019-06-20T00:39:35.414Z,89.59
2019-06-20T00:42:01.648Z,90.19
2019-06-20T00:44:28.963Z,91.30
2019-06-20T00:46:57.048Z,92.10
2019-06-20T00:49:24.641Z,92.38
2019-06-20T00:51:51.895Z,90.81
2019-06-20T00:54:18.111Z,92.30
2019-06-20T00:56:47.566Z,91.47
2019-06-20T00:59:18.509Z,91.17
2019-06-20T01:01:44.745Z,93.61
2019-06-20T01:04:11.001Z,93.06
2019-06-20T01:06:37.270Z,92.08
2019-06-20T01:09:06.456Z,92.47
2019-06-20T01:11:33.942Z,93.05
2019-06-20T01:14:00.097Z,92.34
2019-06-20T01:16:26.219Z,92.78
2019-06-20T01:18:52.442Z,91.50
2019-06-20T01:21:19.639Z,91.64
2019-06-20T01:23:45.852Z,91.43
2019-06-20T01:26:12.002Z,90.86
2019-06-20T01:28:39.704Z,93.16
2019-06-20T01:31:06.268Z,92.81
2019-06-20T01:33:35.521Z,92.92
2019-06-20T01:36:03.553Z,93.93
2019-06-20T01:38:29.781Z,93.87
2019-06-20T01:40:56.137Z,93.25
2019-06-20T01:43:22.418Z,93.26
2019-06-20T01:45:48.736Z,93.67
2019-06-20T01:48:16.233Z,94.16
2019-06-20T01:50:42.449Z,94.92
2019-06-20T01:53:10.000Z,96.48
2019-06-20T01:55:36.227Z,96.05
2019-06-20T01:58:03.012Z,95.37
2019-06-20T02:00:41.875Z,93.42
2019-06-20T02:03:08.253Z,93.62
2019-06-20T02:05:34.827Z,93.70
2019-06-20T02:08:01.082Z,94.98
2019-06-20T02:10:27.356Z,96.11
2019-06-20T02:12:54.782Z,97.22
2019-06-20T02:15:24.900Z,97.04
2019-06-20T02:17:51.035Z,96.13
2019-06-20T02:20:34.982Z,94.82
2019-06-20T02:23:01.179Z,94.50
2019-06-20T02:25:27.396Z,97.04
2019-06-20T02:27:53.559Z,97.27
2019-06-20T02:30:19.997Z,95.92
2019-06-20T02:32:46.246Z,94.05
2019-06-20T02:35:12.357Z,94.23
2019-06-20T02:37:38.497Z,94.10
2019-06-20T02:40:05.425Z,94.98
2019-06-20T02:42:31.998Z,96.33
2019-06-20T02:44:58.127Z,96.40
2019-06-20T02:47:24.372Z,96.26
2019-06-20T02:49:51.822Z,96.41
2019-06-20T02:52:19.679Z,94.81
2019-06-20T02:54:46.548Z,94.64
2019-06-20T02:57:12.842Z,94.68
2019-06-20T02:59:39.112Z,94.52
2019-06-20T03:02:07.879Z,94.68
2019-06-20T03:04:34.097Z,94.85
2019-06-20T03:07:00.679Z,94.57
2019-06-20T03:09:29.164Z,95.06
2019-06-20T03:11:58.533Z,95.16
2019-06-20T03:14:24.677Z,95.69
2019-06-20T03:16:50.793Z,95.18
2019-06-20T03:19:17.009Z,95.02
2019-06-20T03:21:43.228Z,95.08
2019-06-20T03:24:09.357Z,95.02
2019-06-20T03:26:35.513Z,94.31
2019-06-20T03:29:01.643Z,94.61
2019-06-20T03:31:28.272Z,94.19
2019-06-20T03:33:54.802Z,94.00
2019-06-20T03:36:21.027Z,94.83
2019-06-20T03:38:47.288Z,94.60
2019-06-20T03:41:15.249Z,94.47
2019-06-20T03:43:44.368Z,94.44
2019-06-20T03:46:10.990Z,93.30
2019-06-20T03:48:37.503Z,92.35
2019-06-20T03:51:05.003Z,92.83
2019-06-20T03:53:32.966Z,92.68
2019-06-20T03:55:59.083Z,93.35
2019-06-20T03:58:26.534Z,93.72
2019-06-20T04:00:56.589Z,93.19
2019-06-20T04:03:24.146Z,93.29
2019-06-20T04:05:53.444Z,93.01
2019-06-20T04:08:19.671Z,92.60
2019-06-20T04:10:45.906Z,92.35
2019-06-20T04:13:12.034Z,92.34
2019-06-20T04:15:38.171Z,91.99
2019-06-20T04:18:04.284Z,92.07
2019-06-20T04:20:30.516Z,91.70
2019-06-20T04:22:56.634Z,91.73
2019-06-20T04:25:22.943Z,91.15
2019-06-20T04:27:49.191Z,91.25
2019-06-20T04:30:16.227Z,90.10
2019-06-20T04:32:42.371Z,90.01
2019-06-20T04:35:08.593Z,90.04
2019-06-20T04:37:34.737Z,89.81
2019-06-20T04:40:00.967Z,89.81
2019-06-20T04:42:27.108Z,89.96
2019-06-20T04:44:55.502Z,90.15
2019-06-20T04:47:21.739Z,90.62
2019-06-20T04:49:47.967Z,90.40
2019-06-20T04:52:14.192Z,90.53
2019-06-20T04:54:40.331Z,90.26
2019-06-20T04:57:06.448Z,89.97
2019-06-20T04:59:34.533Z,89.68
2019-06-20T05:02:00.783Z,89.88
2019-06-20T05:04:26.882Z,89.55
2019-06-20T05:07:02.427Z,89.68
2019-06-20T05:09:28.645Z,89.92
2019-06-20T05:11:54.877Z,89.71
2019-06-20T05:14:21.115Z,89.61
2019-06-20T05:16:47.247Z,89.96
2019-06-20T05:19:13.472Z,89.75
2019-06-20T05:21:39.696Z,89.56
2019-06-20T05:24:05.825Z,89.62
2019-06-20T05:26:31.956Z,89.61
2019-06-20T05:28:58.195Z,90.04
2019-06-20T05:31:24.477Z,89.63
2019-06-20T05:33:50.643Z,90.09
2019-06-20T05:36:16.888Z,89.75
2019-06-20T05:38:43.131Z,89.84
2019-06-20T05:41:09.357Z,90.09
2019-06-20T05:43:35.592Z,89.98
2019-06-20T05:46:09.678Z,89.85
2019-06-20T05:48:29.972Z,89.95
2019-06-20T05:50:56.208Z,89.98
2019-06-20T05:53:22.442Z,90.52
2019-06-20T05:55:48.658Z,90.36
2019-06-20T05:58:15.495Z,90.26
2019-06-20T06:00:41.786Z,90.59
2019-06-20T06:03:07.984Z,90.40
2019-06-20T06:05:34.208Z,90.83
2019-06-20T06:08:00.454Z,90.87
2019-06-20T06:10:26.681Z,90.07
2019-06-20T06:12:52.902Z,90.02
2019-06-20T06:15:19.212Z,89.80
2019-06-20T06:17:45.441Z,90.46
2019-06-20T06:20:12.485Z,90.44
2019-06-20T06:22:39.258Z,90.85
2019-06-20T06:25:06.180Z,89.80
2019-06-20T06:27:32.403Z,89.58
2019-06-20T06:29:58.626Z,90.29
2019-06-20T06:32:39.230Z,89.65
2019-06-20T06:34:52.834Z,88.68
2019-06-20T06:37:18.972Z,88.26
2019-06-20T06:39:45.188Z,88.18
2019-06-20T06:42:11.425Z,87.42
2019-06-20T06:44:37.536Z,87.39
2019-06-20T06:47:03.758Z,87.26
2019-06-20T06:49:29.905Z,86.46
2019-06-20T06:51:56.145Z,85.97
2019-06-20T06:54:22.404Z,85.95
2019-06-20T06:56:48.775Z,85.88
2019-06-20T06:59:14.905Z,85.23
2019-06-20T07:01:41.052Z,85.48
2019-06-20T07:04:07.403Z,85.84
2019-06-20T07:06:33.668Z,85.44
2019-06-20T07:08:59.942Z,85.81
2019-06-20T07:11:26.098Z,85.40
2019-06-20T07:13:52.212Z,85.37
2019-06-20T07:16:18.367Z,85.47
2019-06-20T07:18:44.467Z,85.73
2019-06-20T07:21:10.718Z,84.83
2019-06-20T07:23:36.941Z,84.71
2019-06-20T07:26:03.266Z,84.15
2019-06-20T07:28:29.563Z,84.23
2019-06-20T07:30:56.847Z,83.40
2019-06-20T07:33:26.960Z,83.49
2019-06-20T07:35:59.169Z,83.49
2019-06-20T07:38:27.116Z,83.53
2019-06-20T07:40:53.344Z,83.15
2019-06-20T07:43:23.583Z,82.65
2019-06-20T07:46:01.957Z,82.73
2019-06-20T07:48:19.612Z,82.83
2019-06-20T07:50:48.252Z,82.51
2019-06-20T07:53:14.420Z,82.51
2019-06-20T07:55:43.006Z,82.16
2019-06-20T07:58:11.667Z,81.71
2019-06-20T08:00:37.798Z,82.40
2019-06-20T08:03:03.952Z,82.14
2019-06-20T08:05:30.081Z,81.67
2019-06-20T08:07:56.236Z,81.37
2019-06-20T08:10:27.425Z,81.14
2019-06-20T08:12:54.932Z,80.45
2019-06-20T08:15:23.939Z,80.62
2019-06-20T08:17:51.875Z,80.74
2019-06-20T08:20:19.023Z,80.20
2019-06-20T08:22:47.418Z,80.08
2019-06-20T08:25:15.918Z,79.25
2019-06-20T08:27:51.655Z,79.22
2019-06-20T08:30:22.772Z,79.15
2019-06-20T08:32:49.047Z,79.19
2019-06-20T08:35:18.589Z,78.71
2019-06-20T08:37:46.325Z,78.91
2019-06-20T08:40:15.512Z,78.63
2019-06-20T08:42:44.895Z,78.39
2019-06-20T08:45:14.624Z,78.74
2019-06-20T08:47:41.276Z,78.06
2019-06-20T08:50:09.019Z,78.13
2019-06-20T08:52:35.972Z,77.78
2019-06-20T08:55:08.695Z,77.44
2019-06-20T08:57:34.817Z,77.13
2019-06-20T09:00:00.970Z,76.26
2019-06-20T09:02:27.097Z,76.21
2019-06-20T09:04:55.220Z,74.79
2019-06-20T09:07:23.129Z,73.55
2019-06-20T09:09:50.421Z,72.58
2019-06-20T09:12:16.656Z,72.45
2019-06-20T09:14:42.934Z,72.31
2019-06-20T09:17:09.245Z,72.17
2019-06-20T09:19:35.341Z,71.94
2019-06-20T09:22:04.668Z,72.26
2019-06-20T09:24:31.330Z,71.69
2019-06-20T09:26:57.484Z,72.69
2019-06-20T09:29:38.341Z,71.84
2019-06-20T09:31:55.642Z,73.07
2019-06-20T09:34:23.451Z,73.88
2019-06-20T09:36:51.938Z,73.62
2019-06-20T09:39:18.235Z,74.18
2019-06-20T09:41:44.372Z,74.59
2019-06-20T09:44:10.521Z,74.73
2019-06-20T09:46:36.795Z,75.43
2019-06-20T09:49:03.292Z,75.68
2019-06-20T09:51:29.554Z,76.84
2019-06-20T09:53:56.355Z,77.16
2019-06-20T09:56:22.533Z,77.82
2019-06-20T09:58:49.596Z,78.26
2019-06-20T10:01:16.203Z,78.95
2019-06-20T10:03:42.441Z,79.44
2019-06-20T10:06:13.749Z,79.88
2019-06-20T10:08:36.970Z,80.33
2019-06-20T10:11:03.195Z,80.56
2019-06-20T10:13:32.549Z,80.40
2019-06-20T10:15:57.397Z,81.64
2019-06-20T10:18:23.534Z,81.64
2019-06-20T10:20:51.471Z,81.02
2019-06-20T10:23:17.624Z,81.02
2019-06-20T10:25:46.101Z,81.43
2019-06-20T10:28:11.972Z,82.34
2019-06-20T10:30:38.234Z,83.20
2019-06-20T10:33:04.341Z,83.30
2019-06-20T10:35:30.590Z,83.62
2019-06-20T10:37:57.300Z,83.35
2019-06-20T10:40:24.105Z,82.91
2019-06-20T10:42:50.375Z,82.91
2019-06-20T10:45:18.997Z,83.22
2019-06-20T10:47:47.278Z,83.35
2019-06-20T10:50:17.498Z,83.35
2019-06-20T10:52:43.725Z,83.45
2019-06-20T10:55:10.498Z,83.19
2019-06-20T10:57:36.779Z,83.06
2019-06-20T11:00:09.302Z,83.57
2019-06-20T11:02:35.537Z,83.37
2019-06-20T11:05:04.074Z,83.50
2019-06-20T11:07:30.207Z,83.50
2019-06-20T11:09:57.751Z,84.36
2019-06-20T11:12:24.987Z,84.23
2019-06-20T11:14:52.783Z,84.05
2019-06-20T11:17:20.824Z,84.30
2019-06-20T11:19:48.044Z,84.34
2019-06-20T11:22:15.407Z,84.71
2019-06-20T11:24:43.044Z,84.86
2019-06-20T11:27:09.674Z,85.04
2019-06-20T11:29:37.801Z,84.97
2019-06-20T11:32:03.896Z,85.51
2019-06-20T11:34:31.706Z,85.39
2019-06-20T11:36:57.923Z,85.94
2019-06-20T11:39:24.055Z,85.77
2019-06-20T11:41:51.777Z,85.96
2019-06-20T11:44:19.726Z,85.45
2019-06-20T11:46:47.101Z,84.97
2019-06-20T11:49:13.617Z,83.44
2019-06-20T11:51:39.907Z,82.96
2019-06-20T11:54:06.150Z,83.36
2019-06-20T11:56:32.688Z,81.54
2019-06-20T11:59:00.766Z,80.22
2019-06-20T12:01:32.915Z,78.97
2019-06-20T12:03:57.035Z,78.46
2019-06-20T12:06:24.287Z,77.51
2019-06-20T12:08:52.810Z,78.71
2019-06-20T12:11:20.787Z,77.40
2019-06-20T12:13:49.598Z,77.33
2019-06-20T12:16:16.218Z,78.85
2019-06-20T12:18:43.147Z,76.92
2019-06-20T12:21:12.457Z,76.94
2019-06-20T12:23:40.700Z,75.78
2019-06-20T12:26:09.260Z,75.78
2019-06-20T12:28:35.413Z,74.90
2019-06-20T12:31:01.695Z,74.39
2019-06-20T12:33:27.929Z,73.18
2019-06-20T12:35:54.279Z,73.28
2019-06-20T12:38:20.510Z,70.61
2019-06-20T12:40:46.740Z,71.56
2019-06-20T12:43:12.890Z,69.85
2019-06-20T12:45:40.025Z,71.59
2019-06-20T12:48:07.273Z,72.13
2019-06-20T12:50:35.324Z,72.96
2019-06-20T12:53:01.598Z,71.76
2019-06-20T12:55:27.901Z,71.81
2019-06-20T12:57:54.206Z,71.42
2019-06-20T13:00:21.482Z,69.42
2019-06-20T13:02:47.834Z,70.48
2019-06-20T13:05:21.158Z,65.35
2019-06-20T13:07:50.439Z,66.84
2019-06-20T13:10:17.852Z,64.44
2019-06-20T13:12:46.353Z,64.61
2019-06-20T13:15:14.482Z,64.62
2019-06-20T13:17:47.013Z,65.58
2019-06-20T13:20:14.160Z,65.92
2019-06-20T13:22:44.825Z,64.46
2019-06-20T13:25:14.185Z,61.75
2019-06-20T13:27:41.054Z,62.46
2019-06-20T13:30:09.618Z,62.15
2019-06-20T13:32:42.047Z,61.18
2019-06-20T13:35:11.449Z,61.60
2019-06-20T13:37:38.220Z,59.70
2019-06-20T13:40:13.562Z,61.23
2019-06-20T13:42:41.953Z,60.83
2019-06-20T13:45:27.505Z,60.01
2019-06-20T13:47:54.248Z,61.32
2019-06-20T13:50:23.043Z,61.21
2019-06-20T13:52:51.158Z,59.59
2019-06-20T13:55:18.023Z,59.59
2019-06-20T13:57:45.235Z,59.94
2019-06-20T14:00:15.007Z,59.88
2019-06-20T14:02:43.298Z,59.48
2019-06-20T14:05:10.448Z,58.65
2019-06-20T14:07:43.585Z,60.02
2019-06-20T14:10:08.786Z,60.13
2019-06-20T14:12:36.854Z,60.59
2019-06-20T14:15:05.184Z,60.07
2019-06-20T14:17:31.852Z,59.69
2019-06-20T14:20:00.374Z,58.31
2019-06-20T14:22:32.826Z,59.59
2019-06-20T14:24:59.390Z,59.09
2019-06-20T14:27:28.900Z,59.26
2019-06-20T14:29:58.487Z,58.83
2019-06-20T14:32:24.783Z,57.96
2019-06-20T14:34:52.649Z,57.47
2019-06-20T14:37:20.164Z,58.30
2019-06-20T14:39:46.868Z,58.69
2019-06-20T14:42:15.554Z,57.96
2019-06-20T14:44:44.098Z,58.72
2019-06-20T14:47:11.992Z,58.82
2019-06-20T14:49:38.239Z,58.75
2019-06-20T14:52:04.697Z,59.56
2019-06-20T14:54:31.871Z,59.02
2019-06-20T14:56:58.415Z,59.55
2019-06-20T14:59:27.971Z,59.73
2019-06-20T15:01:55.501Z,59.76
2019-06-20T15:04:24.391Z,60.19
2019-06-20T15:06:50.643Z,60.06
2019-06-20T15:09:16.776Z,60.69
2019-06-20T15:11:45.834Z,60.75
2019-06-20T15:14:11.275Z,60.89
2019-06-20T15:16:37.404Z,60.69
2019-06-20T15:19:03.656Z,61.02
2019-06-20T15:21:29.788Z,60.40
2019-06-20T15:23:56.670Z,61.78
2019-06-20T15:26:22.966Z,62.23
2019-06-20T15:28:49.770Z,62.38
2019-06-20T15:31:17.348Z,61.77
2019-06-20T15:33:43.727Z,61.88
2019-06-20T15:36:10.040Z,62.07
2019-06-20T15:38:36.287Z,62.38
2019-06-20T15:41:04.345Z,62.78
2019-06-20T15:43:30.567Z,63.14
2019-06-20T15:45:58.385Z,62.53
2019-06-20T15:48:24.649Z,62.52
2019-06-20T15:50:50.820Z,62.35
2019-06-20T15:53:17.021Z,63.21
2019-06-20T15:55:44.836Z,63.25
2019-06-20T15:58:10.974Z,63.25
2019-06-20T16:00:37.210Z,63.00
2019-06-20T16:03:10.006Z,63.27
2019-06-20T16:05:31.744Z,63.27
2019-06-20T16:07:57.975Z,63.60
2019-06-20T16:10:24.242Z,63.64
2019-06-20T16:12:50.493Z,63.79
2019-06-20T16:15:21.613Z,64.05
2019-06-20T16:17:50.591Z,64.02
2019-06-20T16:20:17.079Z,64.38
2019-06-20T16:22:43.336Z,64.17
2019-06-20T16:25:10.344Z,64.70
2019-06-20T16:27:37.043Z,64.66
2019-06-20T16:30:07.222Z,64.55
2019-06-20T16:32:33.467Z,64.81
2019-06-20T16:34:59.700Z,64.82
2019-06-20T16:37:25.938Z,64.80
2019-06-20T16:39:52.178Z,64.77
2019-06-20T16:42:19.004Z,65.17
2019-06-20T16:44:45.153Z,65.41
2019-06-20T16:47:11.434Z,65.71
2019-06-20T16:49:37.657Z,65.41
2019-06-20T16:52:05.313Z,65.74
2019-06-20T16:54:31.535Z,65.96
2019-06-20T16:56:57.769Z,65.94
2019-06-20T16:59:24.019Z,65.75
2019-06-20T17:01:51.125Z,66.61
2019-06-20T17:04:17.251Z,66.22
2019-06-20T17:06:43.506Z,66.49
2019-06-20T17:09:10.054Z,66.72
2019-06-20T17:11:36.240Z,66.38
2019-06-20T17:14:02.472Z,66.33
2019-06-20T17:16:28.700Z,66.78
2019-06-20T17:18:54.947Z,67.33
2019-06-20T17:21:21.121Z,66.48
2019-06-20T17:23:47.390Z,66.91
2019-06-20T17:26:13.688Z,67.16
2019-06-20T17:28:39.928Z,67.46
2019-06-20T17:31:06.072Z,67.63
2019-06-20T17:33:32.320Z,68.21
2019-06-20T17:35:58.556Z,68.09
2019-06-20T17:38:24.879Z,68.30
2019-06-20T17:40:51.134Z,68.10
2019-06-20T17:43:19.204Z,68.11
2019-06-20T17:45:45.467Z,68.68
2019-06-20T17:48:11.906Z,68.68
2019-06-20T17:50:38.092Z,69.12
2019-06-20T17:53:06.033Z,69.35
2019-06-20T17:55:36.267Z,69.54
2019-06-20T17:58:03.764Z,69.70
2019-06-20T18:00:30.421Z,69.47
2019-06-20T18:02:56.705Z,69.73
2019-06-20T18:05:24.201Z,70.10
2019-06-20T18:07:50.470Z,70.49
2019-06-20T18:10:19.907Z,70.43
2019-06-20T18:12:46.092Z,71.57
2019-06-20T18:15:13.144Z,73.13
2019-06-20T18:17:39.764Z,73.63
2019-06-20T18:20:07.216Z,74.42
2019-06-20T18:22:33.444Z,74.65
2019-06-20T18:24:59.593Z,74.84
2019-06-20T18:27:25.854Z,75.02
2019-06-20T18:29:52.123Z,74.71
2019-06-20T18:32:18.481Z,74.80
2019-06-20T18:35:00.557Z,74.48
2019-06-20T18:37:12.873Z,75.35
2019-06-20T18:39:43.888Z,75.22
2019-06-20T18:42:10.373Z,75.94
2019-06-20T18:44:36.622Z,75.70
2019-06-20T18:47:03.029Z,75.39
2019-06-20T18:49:30.345Z,75.30
2019-06-20T18:51:56.586Z,75.52
2019-06-20T18:54:24.116Z,75.87
2019-06-20T18:56:50.259Z,76.25
2019-06-20T18:59:16.515Z,76.17
2019-06-20T19:01:44.212Z,76.35
2019-06-20T19:04:13.293Z,76.75
2019-06-20T19:06:39.608Z,77.22
2019-06-20T19:09:07.843Z,77.31
2019-06-20T19:11:34.083Z,77.67
2019-06-20T19:14:00.701Z,77.93
2019-06-20T19:16:27.034Z,79.06
2019-06-20T19:18:53.312Z,79.50
2019-06-20T19:21:19.686Z,79.89
2019-06-20T19:23:45.903Z,80.66
2019-06-20T19:26:13.010Z,80.81
2019-06-20T19:28:39.233Z,81.49
2019-06-20T19:31:05.493Z,82.19
2019-06-20T19:33:31.731Z,82.78
2019-06-20T19:35:58.165Z,82.54
2019-06-20T19:38:24.311Z,82.87
2019-06-20T19:40:50.850Z,84.25
2019-06-20T19:43:17.114Z,83.30
2019-06-20T19:45:45.422Z,83.45
2019-06-20T19:48:12.853Z,83.84
2019-06-20T19:50:39.508Z,83.78
2019-06-20T19:53:07.405Z,84.28
2019-06-20T19:55:34.514Z,84.92
2019-06-20T19:58:03.973Z,85.03
2019-06-20T20:00:30.226Z,85.53
2019-06-20T20:02:56.577Z,86.24
2019-06-20T20:05:22.810Z,85.71
2019-06-20T20:07:49.168Z,86.69
2019-06-20T20:10:19.231Z,86.90
2019-06-20T20:12:45.568Z,86.98
2019-06-20T20:15:12.468Z,87.69
2019-06-20T20:17:38.698Z,87.71
2019-06-20T20:20:06.240Z,87.50
2019-06-20T20:22:33.293Z,87.51
2019-06-20T20:25:06.045Z,87.57
2019-06-20T20:27:32.480Z,87.85
2019-06-20T20:29:59.084Z,87.87
2019-06-20T20:32:25.277Z,87.66
2019-06-20T20:34:51.429Z,88.56
2019-06-20T20:37:17.937Z,88.63
2019-06-20T20:39:44.191Z,88.97
2019-06-20T20:42:10.587Z,89.16
2019-06-20T20:44:37.131Z,91.39
2019-06-20T20:47:03.370Z,91.21
2019-06-20T20:49:29.629Z,90.48
2019-06-20T20:51:55.875Z,90.48
2019-06-20T20:54:22.026Z,91.33
2019-06-20T20:56:48.243Z,92.52
2019-06-20T20:59:14.438Z,92.47
2019-06-20T21:01:40.668Z,92.46
2019-06-20T21:04:06.909Z,93.41
2019-06-20T21:06:36.208Z,92.66
2019-06-20T21:09:03.689Z,92.07
2019-06-20T21:11:29.817Z,93.29
2019-06-20T21:13:56.072Z,93.29
2019-06-20T21:16:22.282Z,93.07
2019-06-20T21:18:48.558Z,93.28
2019-06-20T21:21:14.835Z,93.20
2019-06-20T21:23:40.948Z,93.20
2019-06-20T21:26:07.126Z,93.45
2019-06-20T21:28:33.352Z,93.79
2019-06-20T21:30:59.618Z,93.67
2019-06-20T21:33:25.856Z,93.33
2019-06-20T21:36:07.298Z,93.52
2019-06-20T21:38:20.544Z,93.87
2019-06-20T21:40:46.673Z,94.31
2019-06-20T21:43:12.814Z,94.54
2019-06-20T21:45:39.055Z,94.10
2019-06-20T21:48:05.350Z,94.50
2019-06-20T21:50:31.518Z,94.73
2019-06-20T21:52:57.767Z,94.47
2019-06-20T21:55:24.012Z,94.90
2019-06-20T21:57:50.157Z,94.83
2019-06-20T22:00:32.808Z,94.84
2019-06-20T22:02:59.167Z,94.66
2019-06-20T22:05:25.433Z,94.81
2019-06-20T22:07:52.982Z,94.91
2019-06-20T22:10:19.423Z,94.39
2019-06-20T22:12:45.686Z,94.36
2019-06-20T22:15:12.213Z,94.56
2019-06-20T22:17:38.764Z,94.52
2019-06-20T22:20:07.605Z,94.69
2019-06-20T22:22:34.183Z,94.59
2019-06-20T22:25:00.733Z,94.11
2019-06-20T22:27:27.325Z,94.42
2019-06-20T22:29:53.540Z,94.99
2019-06-20T22:32:20.958Z,95.01
2019-06-20T22:34:47.187Z,95.09
2019-06-20T22:37:15.582Z,95.24
2019-06-20T22:39:41.846Z,95.19
2019-06-20T22:42:07.979Z,94.87
2019-06-20T22:44:35.858Z,95.30
2019-06-20T22:47:03.914Z,94.70
2019-06-20T22:49:30.161Z,94.76
2019-06-20T22:51:56.383Z,94.62
2019-06-20T22:54:22.523Z,94.58
2019-06-20T22:56:50.359Z,94.45
2019-06-20T22:59:16.578Z,94.45
2019-06-20T23:01:42.817Z,94.64
2019-06-20T23:04:08.949Z,94.10
2019-06-20T23:06:36.174Z,93.95
2019-06-20T23:09:03.992Z,93.69
2019-06-20T23:11:30.615Z,93.48
2019-06-20T23:13:56.900Z,93.63
2019-06-20T23:16:24.406Z,93.79
2019-06-20T23:18:50.648Z,94.10
2019-06-20T23:21:16.871Z,94.28
2019-06-20T23:23:43.118Z,93.87
2019-06-20T23:26:12.070Z,94.08
2019-06-20T23:28:38.242Z,93.77
2019-06-20T23:31:05.669Z,94.38
2019-06-20T23:33:33.937Z,94.27
2019-06-20T23:36:00.737Z,94.74
2019-06-20T23:38:26.857Z,94.52
2019-06-20T23:40:54.900Z,94.62
2019-06-20T23:43:21.036Z,93.61
2019-06-20T23:45:47.264Z,94.61
2019-06-20T23:48:13.504Z,94.73
2019-06-20T23:50:39.732Z,94.83
2019-06-20T23:53:10.554Z,95.23
2019-06-20T23:55:36.812Z,95.99
2019-06-20T23:58:03.154Z,96.29
